Time;durP1;ratioP1;P1;durP2;ratioP2;P2;SDS_P1;SDS_P2;PMS_P1;PMS_P2;Temp;Humidity;BMP_temperature;BMP_pressure;BME280_temperature;BME280_humidity;BME280_pressure;Samples;Min_cycle;Max_cycle;Signal;HPM_P1;HPM_P2
2021/05/19 00:01:49;;;;;;;;;;;;;;;6.93;100.00;98726.50;5052544;28;19932;-77
2021/05/19 00:04:17;;;;;;;;;;;;;;;6.98;100.00;98736.38;5052569;28;20357;-77
2021/05/19 00:06:44;;;;;;;;;;;;;;;6.93;100.00;98736.78;5052485;28;20438;-78
2021/05/19 00:09:14;;;;;;;;;;;;;;;7.08;100.00;98738.28;5051240;28;20284;-77
2021/05/19 00:11:45;;;;;;;;;;;;;;;7.00;100.00;98736.75;5052465;28;19925;-77
2021/05/19 00:14:15;;;;;;;;;;;;;;;7.04;100.00;98745.84;5054691;28;19932;-78
2021/05/19 00:16:43;;;;;;;;;;;;;;;7.04;100.00;98748.63;5056107;28;19931;-77
2021/05/19 00:19:10;;;;;;;;;;;;;;;7.13;100.00;98748.97;5056041;28;20063;-77
2021/05/19 00:21:37;;;;;;;;;;;;;;;7.12;100.00;98750.16;5056113;28;19932;-78
2021/05/19 00:24:06;;;;;;;;;;;;;;;7.14;100.00;98743.00;5056150;28;19932;-77
2021/05/19 00:26:33;;;;;;;;;;;;;;;7.11;100.00;98748.56;5055870;28;19967;-77
2021/05/19 00:29:04;;;;;;;;;;;;;;;7.17;100.00;98738.59;5055862;28;19925;-77
2021/05/19 00:31:33;;;;;;;;;;;;;;;7.24;100.00;98749.66;5055766;28;19935;-77
2021/05/19 00:34:10;;;;;;;;;;;;;;;7.16;100.00;98750.94;5055972;28;19924;-77
2021/05/19 00:36:38;;;;;;;;;;;;;;;7.08;100.00;98754.94;5055581;28;20264;-77
2021/05/19 00:39:06;;;;;;;;;;;;;;;7.12;100.00;98744.59;5055728;28;19928;-77
2021/05/19 00:41:34;;;;;;;;;;;;;;;7.09;100.00;98746.19;5055731;28;19924;-77
2021/05/19 00:44:06;;;;;;;;;;;;;;;7.12;100.00;98750.16;5054104;28;19932;-77
2021/05/19 00:46:33;;;;;;;;;;;;;;;7.25;100.00;98742.91;5036622;28;19932;-77
2021/05/19 00:49:01;;;;;;;;;;;;;;;7.26;100.00;98763.94;5055489;28;19925;-77
2021/05/19 00:51:28;;;;;;;;;;;;;;;7.24;100.00;98741.31;5054271;28;19932;-77
2021/05/19 00:53:56;;;;;;;;;;;;;;;7.10;100.00;98755.34;5055431;28;20264;-77
2021/05/19 00:56:23;;;;;;;;;;;;;;;7.16;100.00;98751.69;5055375;28;19925;-77
2021/05/19 00:58:57;;;;;;;;;;;;;;;7.20;100.00;98729.44;5055561;28;20118;-77
2021/05/19 01:01:24;;;;;;;;;;;;;;;7.13;100.00;98723.97;5055101;28;20022;-76
2021/05/19 01:04:07;;;;;;;;;;;;;;;7.33;100.00;98739.66;5053980;28;19947;-77
2021/05/19 01:06:58;;;;;;;;;;;;;;;7.26;100.00;98727.81;5055231;28;19990;-77
2021/05/19 01:09:35;;;;;;;;;;;;;;;7.32;100.00;98732.53;5055168;28;19956;-77
2021/05/19 01:12:04;;;;;;;;;;;;;;;7.26;100.00;98742.50;5055072;28;19924;-77
2021/05/19 01:14:32;;;;;;;;;;;;;;;7.44;100.00;98736.78;5053894;28;19932;-77
2021/05/19 01:17:01;;;;;;;;;;;;;;;7.36;100.00;98743.63;5055030;28;19932;-77
2021/05/19 01:19:30;;;;;;;;;;;;;;;7.40;100.00;98738.81;5054713;28;19925;-77
2021/05/19 01:22:05;;;;;;;;;;;;;;;7.58;100.00;98730.31;5054957;28;19991;-77
2021/05/19 01:24:33;;;;;;;;;;;;;;;7.41;100.00;98745.19;5053307;28;19924;-77
2021/05/19 01:27:00;;;;;;;;;;;;;;;7.31;100.00;98736.50;5070197;28;20085;-77
2021/05/19 01:29:27;;;;;;;;;;;;;;;7.43;100.00;98738.00;5053590;28;19928;-77
2021/05/19 01:31:54;;;;;;;;;;;;;;;7.46;100.00;98737.19;5054740;28;20368;-77
2021/05/19 01:34:22;;;;;;;;;;;;;;;7.32;100.00;98742.84;5053229;28;19948;-77
2021/05/19 01:36:49;;;;;;;;;;;;;;;7.19;100.00;98755.66;5053373;28;19932;-76
2021/05/19 01:39:17;;;;;;;;;;;;;;;7.22;100.00;98746.50;5053894;28;20023;-77
2021/05/19 01:41:50;;;;;;;;;;;;;;;7.32;100.00;98751.19;5054201;28;19925;-77
2021/05/19 01:44:19;;;;;;;;;;;;;;;7.47;100.00;98746.31;5053138;28;19929;-77
2021/05/19 01:47:10;;;;;;;;;;;;;;;7.60;100.00;98745.41;5047874;28;19932;-77
2021/05/19 01:49:42;;;;;;;;;;;;;;;7.49;100.00;98758.59;5054377;28;20406;-76
2021/05/19 01:52:13;;;;;;;;;;;;;;;7.76;100.00;98753.16;5053177;28;20551;-77
2021/05/19 01:54:41;;;;;;;;;;;;;;;7.81;100.00;98758.28;5053968;28;20394;-77
2021/05/19 01:57:10;;;;;;;;;;;;;;;7.52;100.00;98757.78;5052850;28;19931;-77
2021/05/19 01:59:41;;;;;;;;;;;;;;;7.67;100.00;98750.09;5054102;28;20284;-77
2021/05/19 02:02:09;;;;;;;;;;;;;;;7.76;100.00;98744.81;5054055;28;19960;-77
2021/05/19 02:04:39;;;;;;;;;;;;;;;7.84;100.00;98751.91;5054049;28;20406;-77
2021/05/19 02:07:08;;;;;;;;;;;;;;;7.77;100.00;98738.09;5053007;28;20374;-77
2021/05/19 02:09:42;;;;;;;;;;;;;;;7.70;100.00;98741.72;5052697;28;20368;-77
2021/05/19 02:12:14;;;;;;;;;;;;;;;7.67;100.00;98747.31;5052876;28;19931;-77
2021/05/19 02:14:43;;;;;;;;;;;;;;;7.60;100.00;98748.19;5052487;28;19925;-77
2021/05/19 02:17:10;;;;;;;;;;;;;;;7.45;100.00;98741.16;5053906;28;20258;-77
2021/05/19 02:19:39;;;;;;;;;;;;;;;7.49;100.00;98753.03;5052733;28;20018;-77
2021/05/19 02:22:09;;;;;;;;;;;;;;;7.76;100.00;98756.75;5053714;28;20290;-76
2021/05/19 02:24:47;;;;;;;;;;;;;;;7.89;100.00;98760.59;5036198;28;19925;-77
2021/05/19 02:27:15;;;;;;;;;;;;;;;8.02;100.00;98747.75;5052613;28;19988;-77
2021/05/19 02:29:51;;;;;;;;;;;;;;;8.03;100.00;98743.75;5052600;28;19925;-76
2021/05/19 02:32:18;;;;;;;;;;;;;;;7.97;100.00;98762.09;5052576;28;20256;-77
2021/05/19 02:34:45;;;;;;;;;;;;;;;7.96;100.00;98760.53;5052529;28;20024;-76
2021/05/19 02:37:12;;;;;;;;;;;;;;;7.89;100.00;98759.81;5051828;28;19931;-77
2021/05/19 02:39:40;;;;;;;;;;;;;;;7.85;100.00;98764.59;5052321;28;20368;-77
2021/05/19 02:42:07;;;;;;;;;;;;;;;7.86;100.00;98761.41;5035792;28;19959;-77
2021/05/19 02:44:35;;;;;;;;;;;;;;;7.84;100.00;98758.28;5053622;28;19925;-77
2021/05/19 02:47:03;;;;;;;;;;;;;;;7.79;100.00;98766.25;5053403;28;20019;-76
2021/05/19 02:49:30;;;;;;;;;;;;;;;7.69;100.00;98767.16;5053777;28;19929;-77
2021/05/19 02:51:57;;;;;;;;;;;;;;;7.59;100.00;98763.25;5053548;28;19939;-77
2021/05/19 02:54:24;;;;;;;;;;;;;;;7.62;100.00;98768.00;5053101;28;19968;-77
2021/05/19 02:56:51;;;;;;;;;;;;;;;7.76;100.00;98772.63;5053642;28;20486;-77
2021/05/19 02:59:19;;;;;;;;;;;;;;;7.93;100.00;98766.91;5052014;28;19925;-77
2021/05/19 03:01:47;;;;;;;;;;;;;;;7.72;100.00;98769.13;5068833;28;19925;-77
2021/05/19 03:04:14;;;;;;;;;;;;;;;7.26;100.00;98775.84;5053313;28;19925;-77
2021/05/19 03:06:42;;;;;;;;;;;;;;;6.92;100.00;98780.44;5053432;28;20331;-77
2021/05/19 03:09:09;;;;;;;;;;;;;;;6.73;100.00;98777.38;5053024;28;19978;-77
2021/05/19 03:11:36;;;;;;;;;;;;;;;6.63;100.00;98784.59;5053243;28;19964;-77
2021/05/19 03:14:04;;;;;;;;;;;;;;;6.68;100.00;98783.38;5053205;28;20380;-77
2021/05/19 03:16:33;;;;;;;;;;;;;;;6.84;100.00;98786.44;5053071;28;19925;-77
2021/05/19 03:19:00;;;;;;;;;;;;;;;6.80;100.00;98782.91;5053270;28;19929;-77
2021/05/19 03:21:28;;;;;;;;;;;;;;;6.62;100.00;98779.44;5019096;28;19925;-77
2021/05/19 03:23:55;;;;;;;;;;;;;;;6.72;100.00;98782.16;5053298;28;20491;-77
2021/05/19 03:26:22;;;;;;;;;;;;;;;6.62;100.00;98785.00;5052929;28;20038;-77
2021/05/19 03:28:49;;;;;;;;;;;;;;;6.60;100.00;98798.47;5051795;28;19929;-77
2021/05/19 03:31:16;;;;;;;;;;;;;;;6.75;100.00;98800.78;5053253;28;19929;-77
2021/05/19 03:33:44;;;;;;;;;;;;;;;7.08;100.00;98799.41;5051899;28;19925;-76
2021/05/19 03:36:11;;;;;;;;;;;;;;;6.97;100.00;98801.44;5052998;28;19925;-77
2021/05/19 03:38:38;;;;;;;;;;;;;;;6.85;100.00;98801.91;5051758;28;19929;-77
2021/05/19 03:41:06;;;;;;;;;;;;;;;6.77;100.00;98811.50;5052906;28;19924;-77
2021/05/19 03:43:34;;;;;;;;;;;;;;;6.78;100.00;98807.50;5053043;28;19932;-77
2021/05/19 03:46:01;;;;;;;;;;;;;;;6.62;100.00;98802.41;5052943;28;20015;-77
2021/05/19 03:48:28;;;;;;;;;;;;;;;6.48;100.00;98810.03;5054172;28;19970;-77
2021/05/19 03:50:55;;;;;;;;;;;;;;;6.33;100.00;98805.72;5056489;28;20299;-77
2021/05/19 03:53:22;;;;;;;;;;;;;;;6.25;100.00;98815.25;5056929;28;19925;-77
2021/05/19 03:55:49;;;;;;;;;;;;;;;6.15;100.00;98816.06;5056579;28;19932;-77
2021/05/19 03:58:16;;;;;;;;;;;;;;;6.15;100.00;98819.63;5056838;28;19933;-77
2021/05/19 04:00:44;;;;;;;;;;;;;;;6.12;100.00;98825.19;5056185;28;19955;-77
2021/05/19 04:03:11;;;;;;;;;;;;;;;6.07;100.00;98836.69;5055494;28;19925;-77
2021/05/19 04:05:39;;;;;;;;;;;;;;;6.01;100.00;98835.50;5056336;28;20007;-77
2021/05/19 04:08:07;;;;;;;;;;;;;;;5.97;100.00;98832.75;5056381;28;19929;-77
2021/05/19 04:10:35;;;;;;;;;;;;;;;5.99;100.00;98835.13;5055605;28;19928;-77
2021/05/19 04:13:05;;;;;;;;;;;;;;;6.03;100.00;98839.47;5071378;28;19932;-77
2021/05/19 04:15:33;;;;;;;;;;;;;;;6.03;100.00;98844.25;5056507;28;19925;-77
2021/05/19 04:18:00;;;;;;;;;;;;;;;6.04;100.00;98848.59;5056294;28;19931;-77
2021/05/19 04:20:28;;;;;;;;;;;;;;;6.11;100.00;98851.34;5056036;28;20383;-77
2021/05/19 04:22:55;;;;;;;;;;;;;;;6.12;100.00;98864.03;5056116;28;19925;-77
2021/05/19 04:25:23;;;;;;;;;;;;;;;6.11;100.00;98862.44;5056208;28;20406;-77
2021/05/19 04:27:50;;;;;;;;;;;;;;;6.23;100.00;98864.78;5056143;28;19955;-77
2021/05/19 04:30:17;;;;;;;;;;;;;;;6.34;100.00;98869.13;5055996;28;19939;-77
2021/05/19 04:32:44;;;;;;;;;;;;;;;6.33;100.00;98875.09;5054849;28;20005;-77
2021/05/19 04:35:13;;;;;;;;;;;;;;;6.42;100.00;98878.25;5055578;28;19924;-77
2021/05/19 04:37:40;;;;;;;;;;;;;;;6.42;100.00;98878.25;5055872;28;20356;-77
2021/05/19 04:40:08;;;;;;;;;;;;;;;6.50;100.00;98885.34;5055644;28;19928;-77
2021/05/19 04:42:35;;;;;;;;;;;;;;;6.58;100.00;98882.16;5055783;28;19925;-77
2021/05/19 04:45:03;;;;;;;;;;;;;;;6.77;100.00;98889.25;5054602;28;19925;-77
2021/05/19 04:47:30;;;;;;;;;;;;;;;6.93;100.00;98892.34;5055635;28;20010;-77
2021/05/19 04:49:57;;;;;;;;;;;;;;;7.11;100.00;98888.28;5055313;28;20313;-77
2021/05/19 04:52:25;;;;;;;;;;;;;;;7.15;100.00;98893.81;5055482;28;19925;-77
2021/05/19 04:54:52;;;;;;;;;;;;;;;7.25;100.00;98893.75;5054342;28;19924;-77
2021/05/19 04:57:19;;;;;;;;;;;;;;;7.08;100.00;98894.66;5054031;28;19932;-77
2021/05/19 04:59:47;;;;;;;;;;;;;;;7.07;100.00;98892.28;5054940;28;19928;-77
2021/05/19 05:02:14;;;;;;;;;;;;;;;7.10;100.00;98897.03;5054323;28;20019;-77
2021/05/19 05:04:42;;;;;;;;;;;;;;;7.17;100.00;98902.53;5055024;28;20399;-77
2021/05/19 05:07:10;;;;;;;;;;;;;;;7.26;100.00;98894.56;5055329;28;19924;-77
2021/05/19 05:09:37;;;;;;;;;;;;;;;7.28;100.00;98897.72;5055207;28;19929;-77
2021/05/19 05:12:04;;;;;;;;;;;;;;;7.31;100.00;98906.03;5055070;28;19924;-77
2021/05/19 05:14:31;;;;;;;;;;;;;;;7.35;100.00;98903.22;5055123;28;19947;-77
2021/05/19 05:16:58;;;;;;;;;;;;;;;7.49;100.00;98902.34;5055142;28;19932;-77
2021/05/19 05:19:26;;;;;;;;;;;;;;;7.57;100.00;98903.91;5054743;28;19994;-77
2021/05/19 05:21:53;;;;;;;;;;;;;;;7.70;100.00;98914.13;5055150;28;19967;-77
2021/05/19 05:24:21;;;;;;;;;;;;;;;7.91;100.00;98913.16;5054905;28;19950;-77
2021/05/19 05:26:48;;;;;;;;;;;;;;;8.09;100.00;98913.84;5068492;28;19924;-77
2021/05/19 05:29:15;;;;;;;;;;;;;;;8.19;100.00;98910.97;5074451;28;19935;-76
2021/05/19 05:31:43;;;;;;;;;;;;;;;8.42;100.00;98916.72;5074927;28;19963;-77
2021/05/19 05:34:10;;;;;;;;;;;;;;;8.81;100.00;98922.69;5074413;28;19947;-77
2021/05/19 05:36:37;;;;;;;;;;;;;;;9.43;100.00;98921.53;5073625;28;19928;-77
2021/05/19 05:39:04;;;;;;;;;;;;;;;10.33;100.00;98919.34;5074461;28;19924;-77
2021/05/19 05:41:31;;;;;;;;;;;;;;;10.86;100.00;98915.56;5073413;28;20387;-77
2021/05/19 05:43:58;;;;;;;;;;;;;;;11.79;100.00;98922.41;5074156;28;19970;-77
2021/05/19 05:46:25;;;;;;;;;;;;;;;12.64;100.00;98905.06;5074438;28;19924;-77
2021/05/19 05:48:52;;;;;;;;;;;;;;;13.22;100.00;98893.84;5074451;28;19924;-78
2021/05/19 05:51:20;;;;;;;;;;;;;;;13.85;100.00;98891.91;5074525;28;19924;-78
2021/05/19 05:53:47;;;;;;;;;;;;;;;13.45;100.00;98879.53;5072952;28;19928;-78
2021/05/19 05:56:15;;;;;;;;;;;;;;;12.72;100.00;98883.22;5073237;28;19929;-78
2021/05/19 05:58:42;;;;;;;;;;;;;;;10.96;100.00;98898.56;5074499;28;20248;-78
2021/05/19 06:01:10;;;;;;;;;;;;;;;9.71;100.00;98893.22;5073612;28;19928;-77
2021/05/19 06:03:37;;;;;;;;;;;;;;;9.33;100.00;98905.72;5065622;28;19929;-75
2021/05/19 06:06:04;;;;;;;;;;;;;;;9.85;100.00;98909.72;5059507;28;20330;-77
2021/05/19 06:08:33;;;;;;;;;;;;;;;9.95;100.00;98906.00;5056141;28;21493;-78
2021/05/19 06:11:04;;;;;;;;;;;;;;;9.96;100.00;98924.31;5054078;28;20395;-75
2021/05/19 06:13:32;;;;;;;;;;;;;;;10.01;100.00;98919.03;5054084;28;19929;-74
2021/05/19 06:15:59;;;;;;;;;;;;;;;10.06;100.00;98920.56;5061631;28;20012;-73
2021/05/19 06:18:26;;;;;;;;;;;;;;;10.15;100.00;98924.44;5068456;28;20022;-74
2021/05/19 06:20:53;;;;;;;;;;;;;;;10.47;100.00;98921.09;5064343;28;19925;-74
2021/05/19 06:23:20;;;;;;;;;;;;;;;11.03;100.00;98920.00;5066923;28;19946;-74
2021/05/19 06:25:50;;;;;;;;;;;;;;;11.84;100.00;98923.88;5063639;28;19925;-74
2021/05/19 06:28:17;;;;;;;;;;;;;;;11.73;100.00;98924.13;5065418;28;19924;-74
2021/05/19 06:30:44;;;;;;;;;;;;;;;11.31;100.00;98919.44;5065306;28;19925;-74
2021/05/19 06:33:11;;;;;;;;;;;;;;;12.02;100.00;98925.06;5078928;28;20035;-74
2021/05/19 06:35:39;;;;;;;;;;;;;;;12.95;100.00;98921.44;5071486;28;19925;-75
2021/05/19 06:38:06;;;;;;;;;;;;;;;14.22;100.00;98928.38;5072448;28;19955;-74
2021/05/19 06:40:33;;;;;;;;;;;;;;;15.17;100.00;98919.50;5072736;28;20022;-74
2021/05/19 06:43:01;;;;;;;;;;;;;;;16.41;100.00;98929.53;5072561;28;19924;-75
2021/05/19 06:45:31;;;;;;;;;;;;;;;16.82;100.00;98923.38;5072239;28;19924;-75
2021/05/19 06:47:58;;;;;;;;;;;;;;;15.85;100.00;98921.34;5071407;28;19928;-74
2021/05/19 06:50:25;;;;;;;;;;;;;;;14.38;100.00;98924.69;5071113;28;19936;-74
2021/05/19 06:52:52;;;;;;;;;;;;;;;15.56;100.00;98932.13;5072848;28;19935;-74
2021/05/19 06:55:22;;;;;;;;;;;;;;;15.09;100.00;98928.63;5072277;28;20024;-74
2021/05/19 06:57:49;;;;;;;;;;;;;;;15.07;100.00;98934.72;5072402;28;20439;-74
2021/05/19 07:00:16;;;;;;;;;;;;;;;13.71;100.00;98943.66;5071906;28;19928;-74
2021/05/19 07:02:45;;;;;;;;;;;;;;;12.58;100.00;98946.06;5072506;28;19928;-74
2021/05/19 07:05:12;;;;;;;;;;;;;;;12.98;100.00;98959.81;5072095;28;19924;-74
2021/05/19 07:07:39;;;;;;;;;;;;;;;13.13;100.00;98959.00;5072152;28;19925;-74
2021/05/19 07:10:07;;;;;;;;;;;;;;;12.81;100.00;98958.28;5072248;28;19928;-74
2021/05/19 07:12:34;;;;;;;;;;;;;;;12.56;100.00;98959.72;5072217;28;20416;-74
2021/05/19 07:15:09;;;;;;;;;;;;;;;12.52;100.00;98969.44;5070896;28;19924;-74
2021/05/19 07:17:36;;;;;;;;;;;;;;;11.60;100.00;98967.97;5070810;28;19924;-74
2021/05/19 07:20:05;;;;;;;;;;;;;;;11.49;100.00;98966.63;5072049;28;19925;-73
2021/05/19 07:22:32;;;;;;;;;;;;;;;11.20;100.00;98988.78;5073663;28;19925;-74
2021/05/19 07:24:59;;;;;;;;;;;;;;;10.72;100.00;98988.50;5075817;28;20074;-77
2021/05/19 07:27:26;;;;;;;;;;;;;;;10.73;100.00;98995.66;5057332;28;19924;-77
2021/05/19 07:29:53;;;;;;;;;;;;;;;10.50;100.00;98987.28;5058537;28;19925;-77
2021/05/19 07:32:20;;;;;;;;;;;;;;;10.65;100.00;98988.59;5080357;28;19967;-77
2021/05/19 07:34:48;;;;;;;;;;;;;;;10.97;100.00;98994.41;5064799;28;20299;-77
2021/05/19 07:37:17;;;;;;;;;;;;;;;11.04;100.00;98985.91;5074977;28;19930;-77
2021/05/19 07:39:45;;;;;;;;;;;;;;;11.04;100.00;98994.31;5074785;28;20219;-77
2021/05/19 07:42:16;;;;;;;;;;;;;;;11.18;100.00;98994.00;5076007;28;19924;-77
2021/05/19 07:44:44;;;;;;;;;;;;;;;11.16;100.00;98996.47;5091548;28;19990;-77
2021/05/19 07:47:11;;;;;;;;;;;;;;;11.04;100.00;98991.50;5074617;28;20442;-77
2021/05/19 07:49:38;;;;;;;;;;;;;;;11.12;100.00;98990.13;5074758;28;19921;-77
2021/05/19 07:52:04;;;;;;;;;;;;;;;11.76;100.00;99000.84;5074666;28;19917;-77
2021/05/19 07:54:31;;;;;;;;;;;;;;;13.67;100.00;98989.94;5075809;28;19923;-77
2021/05/19 07:57:04;;;;;;;;;;;;;;;14.32;100.00;98985.53;5075898;28;19916;-77
2021/05/19 07:59:32;;;;;;;;;;;;;;;13.73;100.00;98988.16;5075677;28;19917;-77
2021/05/19 08:02:02;;;;;;;;;;;;;;;12.63;100.00;98998.75;5075460;28;19931;-77
2021/05/19 08:04:29;;;;;;;;;;;;;;;11.77;100.00;99010.84;5075423;28;20381;-77
2021/05/19 08:06:55;;;;;;;;;;;;;;;11.31;100.00;99003.38;5064047;28;20319;-76
2021/05/19 08:09:21;;;;;;;;;;;;;;;11.22;100.00;99011.53;5058223;28;19927;-77
2021/05/19 08:11:48;;;;;;;;;;;;;;;11.15;100.00;99000.47;5062322;28;19924;-77
2021/05/19 08:14:15;;;;;;;;;;;;;;;11.24;100.00;99011.88;5060458;28;19967;-78
2021/05/19 08:16:41;;;;;;;;;;;;;;;11.42;100.00;99015.09;5056425;28;19917;-77
2021/05/19 08:19:07;;;;;;;;;;;;;;;11.43;100.00;99010.31;5055341;28;19924;-77
2021/05/19 08:21:35;;;;;;;;;;;;;;;11.94;100.00;99024.44;5055698;28;19947;-77
2021/05/19 08:24:02;;;;;;;;;;;;;;;12.09;100.00;99020.09;5055183;28;19924;-77
2021/05/19 08:26:29;;;;;;;;;;;;;;;11.77;100.00;99025.59;5056683;28;19924;-77
2021/05/19 08:28:56;;;;;;;;;;;;;;;11.85;100.00;99018.63;5042656;28;19928;-77
2021/05/19 08:31:23;;;;;;;;;;;;;;;12.29;100.00;99022.84;5045499;28;20021;-77
2021/05/19 08:34:04;;;;;;;;;;;;;;;12.90;100.00;99028.53;5067869;28;19924;-77
2021/05/19 08:36:32;;;;;;;;;;;;;;;12.85;100.00;99032.66;5074968;28;19924;-75
2021/05/19 08:38:59;;;;;;;;;;;;;;;12.70;100.00;99029.44;5058015;28;19951;-77
2021/05/19 08:41:26;;;;;;;;;;;;;;;12.62;100.00;99019.63;5054969;28;20284;-76
2021/05/19 08:43:53;;;;;;;;;;;;;;;13.98;100.00;99013.47;5058241;28;19925;-77
2021/05/19 08:46:20;;;;;;;;;;;;;;;14.89;100.00;99015.38;5056498;28;19947;-77
2021/05/19 08:49:01;;;;;;;;;;;;;;;14.97;100.00;99009.06;5057003;28;19971;-77
2021/05/19 08:51:28;;;;;;;;;;;;;;;14.14;100.00;99008.56;5055196;28;19929;-77
2021/05/19 08:53:55;;;;;;;;;;;;;;;13.69;100.00;99007.13;5058013;28;20415;-77
2021/05/19 08:56:22;;;;;;;;;;;;;;;13.45;100.00;99017.06;5054929;28;20001;-77
2021/05/19 08:58:50;;;;;;;;;;;;;;;12.78;100.00;99025.22;5057990;28;19928;-74
2021/05/19 09:01:20;;;;;;;;;;;;;;;12.21;100.00;99030.63;5056015;28;20447;-77
2021/05/19 09:04:00;;;;;;;;;;;;;;;12.36;100.00;99037.47;5056397;28;19975;-77
2021/05/19 09:06:30;;;;;;;;;;;;;;;12.41;100.00;99025.75;5062680;28;20042;-77
2021/05/19 09:08:57;;;;;;;;;;;;;;;12.35;100.00;99033.09;5070013;28;20229;-77
2021/05/19 09:11:24;;;;;;;;;;;;;;;12.35;100.00;99027.50;5071419;28;19932;-76
2021/05/19 09:13:51;;;;;;;;;;;;;;;12.41;100.00;99025.75;5071337;28;19928;-77
2021/05/19 09:16:26;;;;;;;;;;;;;;;12.86;100.00;99027.84;5046623;28;19935;-77
2021/05/19 09:18:54;;;;;;;;;;;;;;;13.21;100.00;99019.31;5069440;28;19925;-76
2021/05/19 09:21:38;;;;;;;;;;;;;;;13.41;100.00;99017.16;5054761;28;19963;-76
2021/05/19 09:24:09;;;;;;;;;;;;;;;13.16;100.00;99019.06;5053926;28;19933;-76
2021/05/19 09:26:55;;;;;;;;;;;;;;;13.11;100.00;99017.59;5056236;28;19929;-76
2021/05/19 09:29:25;;;;;;;;;;;;;;;12.75;100.00;99012.06;5057741;28;19935;-76
2021/05/19 09:31:53;;;;;;;;;;;;;;;12.54;100.00;99018.22;5052562;28;20314;-76
2021/05/19 09:34:28;;;;;;;;;;;;;;;12.68;100.00;99026.28;5055230;28;19992;-76
2021/05/19 09:37:10;;;;;;;;;;;;;;;12.93;100.00;99034.06;5070323;28;19928;-76
2021/05/19 09:39:48;;;;;;;;;;;;;;;12.41;100.00;99028.56;5055935;28;19954;-76
2021/05/19 09:42:16;;;;;;;;;;;;;;;12.61;100.00;99031.28;5055217;28;20001;-75
2021/05/19 09:44:46;;;;;;;;;;;;;;;13.16;100.00;99021.88;5052593;28;19929;-76
2021/05/19 09:47:33;;;;;;;;;;;;;;;12.99;100.00;99028.69;5053641;28;19960;-77
2021/05/19 09:50:01;;;;;;;;;;;;;;;13.01;100.00;99034.69;5062098;28;20394;-77
2021/05/19 09:52:28;;;;;;;;;;;;;;;13.42;100.00;99027.13;5067888;28;20276;-78
2021/05/19 09:55:01;;;;;;;;;;;;;;;14.14;100.00;99033.03;5064315;28;19963;-78
2021/05/19 09:57:44;;;;;;;;;;;;;;;14.94;100.00;99021.22;5082314;28;20379;-77
2021/05/19 10:00:12;;;;;;;;;;;;;;;14.65;100.00;99014.97;5062362;28;20425;-78
2021/05/19 10:02:40;;;;;;;;;;;;;;;14.48;100.00;99023.97;5066188;28;19924;-78
2021/05/19 10:05:12;;;;;;;;;;;;;;;14.18;100.00;99028.09;5064057;28;19951;-78
2021/05/19 10:07:39;;;;;;;;;;;;;;;13.61;100.00;99045.84;5066238;28;19928;-77
2021/05/19 10:10:06;;;;;;;;;;;;;;;13.39;100.00;99055.31;5063872;28;19931;-78
2021/05/19 10:12:34;;;;;;;;;;;;;;;13.32;100.00;99052.69;5036733;28;20019;-78
2021/05/19 10:15:07;;;;;;;;;;;;;;;13.24;100.00;99054.13;5051958;28;20431;-78
2021/05/19 10:17:40;;;;;;;;;;;;;;;13.18;100.00;99050.25;5055096;28;19925;-78
2021/05/19 10:20:08;;;;;;;;;;;;;;;12.92;100.00;99049.28;5053992;28;19979;-78
2021/05/19 10:22:36;;;;;;;;;;;;;;;12.27;100.00;99056.88;5053415;28;20020;-78
2021/05/19 10:25:18;;;;;;;;;;;;;;;11.97;100.00;99068.38;5052402;28;20403;-78
2021/05/19 10:27:47;;;;;;;;;;;;;;;11.57;100.00;99068.78;5052626;28;19929;-78
2021/05/19 10:30:31;;;;;;;;;;;;;;;11.04;100.00;99072.59;5052484;28;19971;-78
2021/05/19 10:32:59;;;;;;;;;;;;;;;10.90;100.00;99084.00;5061991;28;20397;-78
2021/05/19 10:35:32;;;;;;;;;;;;;;;10.82;100.00;99088.13;5072428;28;19924;-78
2021/05/19 10:38:19;;;;;;;;;;;;;;;10.80;100.00;99096.94;5053430;28;19936;-78
2021/05/19 10:40:54;;;;;;;;;;;;;;;10.56;100.00;99105.72;5053798;28;19924;-75
2021/05/19 10:43:21;;;;;;;;;;;;;;;9.96;100.00;99117.72;5058613;28;20435;-76
2021/05/19 10:45:50;;;;;;;;;;;;;;;9.64;100.00;99133.22;5059969;28;20453;-74
2021/05/19 10:48:27;;;;;;;;;;;;;;;9.39;100.00;99127.16;5055657;28;19924;-75
2021/05/19 10:51:00;;;;;;;;;;;;;;;9.44;100.00;99127.47;5052912;28;19925;-77
2021/05/19 10:59:13;;;;;;;;;;;;;;;9.93;100.00;99129.72;5055618;28;19924;-78
2021/05/19 11:01:44;;;;;;;;;;;;;;;10.07;100.00;99140.72;5053691;28;19925;-78
2021/05/19 11:04:16;;;;;;;;;;;;;;;10.16;100.00;99148.59;5055210;28;20388;-78
2021/05/19 11:07:01;;;;;;;;;;;;;;;10.34;100.00;99163.09;5053701;28;19925;-78
2021/05/19 11:09:29;;;;;;;;;;;;;;;10.31;100.00;99163.94;5054092;28;19932;-78
2021/05/19 11:12:15;;;;;;;;;;;;;;;10.28;100.00;99173.16;5053747;28;19931;-78
2021/05/19 11:14:52;;;;;;;;;;;;;;;10.14;100.00;99178.91;5051879;28;20012;-78
2021/05/19 11:20:07;;;;;;;;;;;;;;;9.83;100.00;99174.50;5053647;28;20296;-78
2021/05/19 11:22:34;;;;;;;;;;;;;;;9.73;100.00;99172.59;5053884;28;19925;-78
2021/05/19 11:25:04;;;;;;;;;;;;;;;9.78;100.00;99183.31;5053643;28;19986;-78
2021/05/19 11:27:32;;;;;;;;;;;;;;;9.76;100.00;99180.13;5053777;28;19940;-78
2021/05/19 11:30:00;;;;;;;;;;;;;;;9.61;100.00;99184.28;5054297;28;19935;-78
2021/05/19 11:32:29;;;;;;;;;;;;;;;9.47;100.00;99187.19;5053591;28;20010;-78
2021/05/19 11:35:14;;;;;;;;;;;;;;;9.53;100.00;99185.53;5068936;28;19925;-77
2021/05/19 11:38:01;;;;;;;;;;;;;;;9.30;100.00;99193.75;5072192;28;20185;-77
2021/05/19 11:40:37;;;;;;;;;;;;;;;9.31;100.00;99201.72;5087490;28;20109;-77
2021/05/19 11:43:04;;;;;;;;;;;;;;;9.39;100.00;99203.22;5070945;28;20372;-78
2021/05/19 11:45:31;;;;;;;;;;;;;;;9.49;100.00;99207.91;5071950;28;20133;-77
2021/05/19 11:47:59;;;;;;;;;;;;;;;9.45;100.00;99211.94;5071981;28;19924;-78
2021/05/19 11:53:58;;;;;;;;;;;;;;;9.75;100.00;99210.06;5070721;28;19924;-77
2021/05/19 11:56:39;;;;;;;;;;;;;;;10.03;100.00;99217.31;5072081;28;19955;-78
2021/05/19 11:59:28;;;;;;;;;;;;;;;10.52;100.00;99211.16;5070646;28;20031;-77
2021/05/19 12:01:59;;;;;;;;;;;;;;;10.83;100.00;99213.50;5071766;28;19925;-78
2021/05/19 12:04:28;;;;;;;;;;;;;;;10.99;100.00;99202.44;5071705;28;19961;-78
2021/05/19 12:06:56;;;;;;;;;;;;;;;11.25;100.00;99206.47;5071910;28;19925;-78
2021/05/19 12:09:23;;;;;;;;;;;;;;;11.55;100.00;99203.53;5072612;28;19924;-77
2021/05/19 12:11:51;;;;;;;;;;;;;;;11.91;100.00;99209.28;5075706;28;19935;-78
2021/05/19 12:14:18;;;;;;;;;;;;;;;12.25;100.00;99196.59;5074219;28;19931;-78
2021/05/19 12:16:46;;;;;;;;;;;;;;;12.14;100.00;99193.25;5075352;28;19924;-78
2021/05/19 12:19:13;;;;;;;;;;;;;;;12.51;100.00;99186.47;5075150;28;20023;-78
2021/05/19 12:21:42;;;;;;;;;;;;;;;12.57;100.00;99182.69;5075233;28;20014;-78
2021/05/19 12:24:10;;;;;;;;;;;;;;;12.51;100.00;99178.84;5073801;28;19924;-78
2021/05/19 12:26:40;;;;;;;;;;;;;;;12.59;100.00;99173.84;5075313;28;19935;-78
2021/05/19 12:29:26;;;;;;;;;;;;;;;12.52;100.00;99171.22;5074234;28;19925;-78
2021/05/19 12:32:05;;;;;;;;;;;;;;;12.48;100.00;99162.88;5075256;28;20007;-78
2021/05/19 12:34:34;;;;;;;;;;;;;;;12.78;100.00;99159.78;5074677;28;19929;-78
2021/05/19 12:37:01;;;;;;;;;;;;;;;12.99;100.00;99149.31;5074957;28;19962;-78
2021/05/19 12:39:29;;;;;;;;;;;;;;;13.30;100.00;99156.19;5075034;28;20379;-78
2021/05/19 12:41:58;;;;;;;;;;;;;;;13.66;100.00;99151.97;5074706;28;19928;-78
2021/05/19 12:44:31;;;;;;;;;;;;;;;13.72;100.00;99135.41;5057227;28;20011;-78
2021/05/19 12:47:02;;;;;;;;;;;;;;;14.08;100.00;99139.59;5072730;28;20245;-77
2021/05/19 12:49:29;;;;;;;;;;;;;;;14.04;100.00;99133.25;5075029;28;19928;-77
2021/05/19 12:51:58;;;;;;;;;;;;;;;14.06;100.00;99132.81;5073523;28;19929;-77
2021/05/19 12:54:37;;;;;;;;;;;;;;;14.25;100.00;99141.09;5074807;28;20013;-77
2021/05/19 12:57:06;;;;;;;;;;;;;;;13.80;100.00;99133.97;5074704;28;20285;-77
2021/05/19 12:59:51;;;;;;;;;;;;;;;13.67;100.00;99133.13;5074666;28;19925;-77
2021/05/19 13:02:20;;;;;;;;;;;;;;;13.71;100.00;99139.44;5074187;28;20001;-77
2021/05/19 13:04:48;;;;;;;;;;;;;;;13.79;100.00;99136.00;5074493;28;19935;-77
2021/05/19 13:07:16;;;;;;;;;;;;;;;13.87;100.00;99153.44;5074433;28;19932;-77